Hogeland, Montana
Current Conditions -  °F | °C
As of 6:53 PM on Sunday 25 Jan 2015 (Local Time) from KHVR Reporting Station
Clear Clear  
Wind Chill: 41°   Ceiling: Unl
Heat Index: 46°   Visibility: 10mi
Dew Point: 34°   Wind: 10mph
Humidity: 63%   Direction: 210°SSW
Pressure: 29.94"   Gusts: NA
Location:  48.85°N, 108.66°W
Report Text: KHVR 260153Z AUTO 21009KT 10SM CLR 08/01 A2994 RMK AO2 PK WND 23027/0057 SLP154 T00780011
Loading
Personal Weather Stations






























Interactive Weather Map New forecast layout! Learn more

10-Day Weather Forecast

Advertisements
Track Severe Weather on mobile